createdAt,value
2022-10-17T00:00:30.118Z,8.25
2022-10-17T00:02:57.543Z,8.23
2022-10-17T00:05:25.103Z,8.24
2022-10-17T00:07:53.079Z,8.22
2022-10-17T00:10:20.131Z,8.17
2022-10-17T00:12:47.069Z,8.14
2022-10-17T00:15:18.983Z,8.11
2022-10-17T00:17:45.551Z,8.13
2022-10-17T00:20:12.704Z,8.11
2022-10-17T00:22:39.478Z,8.06
2022-10-17T00:25:06.394Z,8.07
2022-10-17T00:27:40.090Z,8.06
2022-10-17T00:30:10.703Z,7.97
2022-10-17T00:32:37.234Z,7.93
2022-10-17T00:35:04.027Z,7.88
2022-10-17T00:37:31.571Z,7.76
2022-10-17T00:39:58.715Z,7.69
2022-10-17T00:42:26.583Z,7.59
2022-10-17T00:45:23.790Z,7.62
2022-10-17T00:48:05.373Z,7.61
2022-10-17T00:50:32.242Z,7.57
2022-10-17T00:53:02.734Z,7.50
2022-10-17T00:55:34.339Z,7.56
2022-10-17T00:58:03.356Z,7.58
2022-10-17T01:00:29.864Z,7.43
2022-10-17T01:02:56.455Z,7.34
2022-10-17T01:05:23.133Z,7.41
2022-10-17T01:07:52.077Z,7.38
2022-10-17T01:10:19.687Z,7.41
2022-10-17T01:13:13.902Z,7.43
2022-10-17T01:15:50.483Z,7.44
2022-10-17T01:18:38.251Z,7.41
2022-10-17T01:21:10.607Z,7.44
2022-10-17T01:23:58.306Z,7.39
2022-10-17T01:26:37.552Z,7.32
2022-10-17T01:29:25.556Z,7.26
2022-10-17T01:32:00.497Z,7.17
2022-10-17T01:34:47.734Z,7.23
2022-10-17T01:37:22.102Z,7.24
2022-10-17T01:40:14.835Z,7.22
2022-10-17T01:43:13.773Z,7.22
2022-10-17T01:45:51.462Z,7.19
2022-10-17T01:48:23.688Z,7.17
2022-10-17T01:50:58.655Z,7.20
2022-10-17T01:53:33.711Z,7.19
2022-10-17T01:56:03.851Z,7.19
2022-10-17T01:58:40.411Z,7.18
2022-10-17T02:01:09.966Z,7.18
2022-10-17T02:03:38.764Z,7.16
2022-10-17T02:06:05.912Z,7.16
2022-10-17T02:08:50.199Z,7.02
2022-10-17T02:11:27.127Z,7.05
2022-10-17T02:14:21.014Z,7.10
2022-10-17T02:16:59.625Z,7.05
2022-10-17T02:19:55.106Z,7.02
2022-10-17T02:23:09.066Z,6.98
2022-10-17T02:25:49.775Z,6.95
2022-10-17T02:28:44.646Z,6.92
2022-10-17T02:31:22.607Z,6.84
2022-10-17T02:33:56.895Z,6.83
2022-10-17T02:36:27.483Z,6.81
2022-10-17T02:38:55.621Z,6.83
2022-10-17T02:41:23.789Z,6.80
2022-10-17T02:43:52.768Z,6.74
2022-10-17T02:46:23.470Z,6.67
2022-10-17T02:49:12.425Z,6.65
2022-10-17T02:51:52.290Z,6.66
2022-10-17T02:54:33.238Z,6.63
2022-10-17T02:57:06.423Z,6.57
2022-10-17T03:02:06.630Z,6.54
2022-10-17T03:04:34.498Z,6.54
2022-10-17T03:07:01.021Z,6.47
2022-10-17T03:09:27.654Z,6.40
2022-10-17T03:11:54.289Z,6.39
2022-10-17T03:14:20.826Z,6.35
2022-10-17T03:16:47.507Z,6.29
2022-10-17T03:19:14.012Z,6.31
2022-10-17T03:21:40.547Z,6.30
2022-10-17T03:24:07.481Z,6.25
2022-10-17T03:26:35.209Z,6.25
2022-10-17T03:29:01.797Z,6.23
2022-10-17T03:31:28.354Z,6.16
2022-10-17T03:33:54.875Z,6.14
2022-10-17T03:36:21.456Z,6.11
2022-10-17T03:38:48.442Z,6.11
2022-10-17T03:41:14.945Z,6.14
2022-10-17T03:43:41.505Z,6.06
2022-10-17T03:46:08.183Z,6.07
2022-10-17T03:48:34.782Z,6.03
2022-10-17T03:51:06.619Z,6.06
2022-10-17T03:53:33.974Z,6.04
2022-10-17T03:56:21.178Z,6.04
2022-10-17T03:58:47.823Z,5.98
2022-10-17T04:01:16.457Z,5.91
2022-10-17T04:03:43.379Z,5.91
2022-10-17T04:06:12.425Z,5.90
2022-10-17T04:08:39.302Z,5.93
2022-10-17T04:11:08.379Z,5.91
2022-10-17T04:13:35.690Z,5.90
2022-10-17T04:16:06.023Z,5.83
2022-10-17T04:18:32.667Z,5.83
2022-10-17T04:21:02.698Z,5.82
2022-10-17T04:23:29.851Z,5.81
2022-10-17T04:25:57.619Z,5.81
2022-10-17T04:28:25.138Z,5.80
2022-10-17T04:31:01.793Z,5.81
2022-10-17T04:33:28.983Z,5.69
2022-10-17T04:36:03.190Z,5.69
2022-10-17T04:38:30.530Z,5.67
2022-10-17T04:41:03.751Z,5.60
2022-10-17T04:43:31.723Z,5.64
2022-10-17T04:45:59.130Z,5.60
2022-10-17T04:48:25.841Z,5.61
2022-10-17T04:51:14.239Z,5.60
2022-10-17T04:53:42.022Z,5.59
2022-10-17T04:56:11.603Z,5.57
2022-10-17T04:58:39.311Z,5.63
2022-10-17T05:01:07.708Z,5.63
2022-10-17T05:03:35.286Z,5.65
2022-10-17T05:06:07.150Z,5.60
2022-10-17T05:08:33.874Z,5.58
2022-10-17T05:11:00.603Z,5.56
2022-10-17T05:13:27.187Z,5.57
2022-10-17T05:15:53.818Z,5.51
2022-10-17T05:18:20.314Z,5.55
2022-10-17T05:20:46.892Z,5.53
2022-10-17T05:23:13.411Z,5.53
2022-10-17T05:25:39.904Z,5.60
2022-10-17T05:28:06.408Z,5.62
2022-10-17T05:30:35.300Z,5.66
2022-10-17T05:33:04.069Z,5.70
2022-10-17T05:35:30.779Z,5.67
2022-10-17T05:37:58.146Z,5.74
2022-10-17T05:40:24.663Z,5.78
2022-10-17T05:42:51.154Z,5.84
2022-10-17T05:45:17.759Z,5.82
2022-10-17T05:47:44.282Z,5.85
2022-10-17T05:50:11.082Z,5.93
2022-10-17T05:52:37.655Z,5.96
2022-10-17T05:55:05.723Z,6.02
2022-10-17T05:57:32.282Z,6.13
2022-10-17T05:59:58.976Z,6.18
2022-10-17T06:02:25.546Z,6.26
2022-10-17T06:04:52.127Z,6.33
2022-10-17T06:07:18.647Z,6.44
2022-10-17T06:12:12.529Z,6.60
2022-10-17T06:14:39.174Z,6.70
2022-10-17T06:17:05.750Z,6.81
2022-10-17T06:19:32.307Z,6.92
2022-10-17T06:21:58.790Z,7.04
2022-10-17T06:24:25.263Z,7.16
2022-10-17T06:26:51.858Z,7.28
2022-10-17T06:29:18.367Z,7.42
2022-10-17T06:31:44.897Z,7.55
2022-10-17T06:34:11.458Z,7.69
2022-10-17T06:36:37.955Z,7.83
2022-10-17T06:39:04.625Z,7.97
2022-10-17T06:41:31.131Z,8.12
2022-10-17T06:43:57.645Z,8.28
2022-10-17T06:46:26.822Z,8.43
2022-10-17T06:48:53.403Z,8.58
2022-10-17T06:51:19.943Z,8.73
2022-10-17T06:53:47.120Z,8.99
2022-10-17T06:56:13.652Z,9.18
2022-10-17T06:58:40.918Z,9.37
2022-10-17T07:01:13.364Z,9.54
2022-10-17T07:03:41.087Z,9.67
2022-10-17T07:06:07.880Z,9.82
2022-10-17T07:08:34.425Z,9.96
2022-10-17T07:11:09.807Z,10.10
2022-10-17T07:13:39.148Z,10.23
2022-10-17T07:16:06.785Z,10.37
2022-10-17T07:18:33.519Z,10.50
2022-10-17T07:21:00.058Z,10.62
2022-10-17T07:23:27.039Z,10.77
2022-10-17T07:25:59.171Z,10.93
2022-10-17T07:28:25.724Z,11.06
2022-10-17T07:30:54.438Z,11.17
2022-10-17T07:33:21.101Z,11.32
2022-10-17T07:35:47.645Z,11.47
2022-10-17T07:38:14.121Z,11.60
2022-10-17T07:40:42.639Z,11.68
2022-10-17T07:43:09.121Z,11.79
2022-10-17T07:45:35.610Z,11.95
2022-10-17T07:48:02.119Z,12.12
2022-10-17T07:50:29.224Z,12.28
2022-10-17T07:52:55.829Z,12.40
2022-10-17T07:55:22.371Z,12.53
2022-10-17T07:57:48.880Z,12.70
2022-10-17T08:00:15.694Z,12.88
2022-10-17T08:02:42.234Z,13.01
2022-10-17T08:05:08.930Z,13.13
2022-10-17T08:07:35.460Z,13.32
2022-10-17T08:10:02.131Z,13.49
2022-10-17T08:12:32.371Z,13.63
2022-10-17T08:14:59.325Z,13.78
2022-10-17T08:17:25.867Z,13.92
2022-10-17T08:19:53.452Z,14.14
2022-10-17T08:22:19.959Z,14.31
2022-10-17T08:24:46.664Z,14.45
2022-10-17T08:27:13.776Z,14.65
2022-10-17T08:29:41.051Z,14.87
2022-10-17T08:32:10.007Z,14.98
2022-10-17T08:34:36.814Z,15.17
2022-10-17T08:37:03.422Z,15.30
2022-10-17T08:39:29.979Z,15.43
2022-10-17T08:42:05.451Z,15.60
2022-10-17T08:44:43.115Z,15.78
2022-10-17T08:47:15.427Z,15.95
2022-10-17T08:50:02.125Z,16.16
2022-10-17T08:52:48.301Z,16.30
2022-10-17T08:55:17.406Z,16.49
2022-10-17T08:57:44.517Z,16.69
2022-10-17T09:00:18.249Z,16.87
2022-10-17T09:03:13.630Z,17.07
2022-10-17T09:05:52.653Z,17.21
2022-10-17T09:08:51.611Z,17.38
2022-10-17T09:11:24.103Z,17.57
2022-10-17T09:14:32.225Z,17.79
2022-10-17T09:17:26.522Z,17.97
2022-10-17T09:20:12.283Z,18.21
2022-10-17T09:22:46.178Z,18.43
2022-10-17T09:25:16.591Z,18.59
2022-10-17T09:27:45.809Z,18.62
2022-10-17T09:30:57.583Z,18.83
2022-10-17T09:33:55.226Z,19.11
2022-10-17T09:36:27.994Z,19.43
2022-10-17T09:39:00.501Z,19.59
2022-10-17T09:41:44.991Z,19.90
2022-10-17T09:44:23.338Z,20.19
2022-10-17T09:47:24.000Z,20.25
2022-10-17T09:49:51.363Z,20.60
2022-10-17T09:52:40.319Z,21.04
2022-10-17T09:55:31.195Z,21.59
2022-10-17T09:58:02.992Z,22.00
2022-10-17T10:00:32.936Z,22.51
2022-10-17T10:03:23.264Z,22.99
2022-10-17T10:06:16.680Z,23.37
2022-10-17T10:08:55.152Z,23.91
2022-10-17T10:11:44.476Z,23.98
2022-10-17T10:14:12.788Z,24.49
2022-10-17T10:16:45.447Z,24.91
2022-10-17T10:19:33.170Z,25.12
2022-10-17T10:22:05.208Z,25.31
2022-10-17T10:24:32.784Z,25.54
2022-10-17T10:27:02.986Z,25.78
2022-10-17T10:29:40.262Z,26.31
2022-10-17T10:32:16.067Z,26.90
2022-10-17T10:34:52.668Z,27.38
2022-10-17T10:37:23.618Z,27.72
2022-10-17T10:40:18.494Z,27.97
2022-10-17T10:42:50.287Z,28.42
2022-10-17T10:45:46.370Z,28.33
2022-10-17T10:48:16.258Z,29.25
2022-10-17T10:50:52.711Z,29.72
2022-10-17T10:53:47.041Z,30.41
2022-10-17T10:56:19.267Z,30.70
2022-10-17T10:58:54.277Z,31.33
2022-10-17T11:02:02.326Z,31.27
2022-10-17T11:04:54.903Z,30.44
2022-10-17T11:07:36.559Z,31.25
2022-10-17T11:10:14.259Z,31.08
2022-10-17T11:12:46.479Z,31.26
2022-10-17T11:15:22.315Z,31.64
2022-10-17T11:17:57.645Z,31.95
2022-10-17T11:20:53.351Z,32.66
2022-10-17T11:23:28.662Z,32.86
2022-10-17T11:26:00.132Z,33.28
2022-10-17T11:28:26.784Z,33.52
2022-10-17T11:31:07.971Z,32.26
2022-10-17T11:33:37.591Z,33.12
2022-10-17T11:36:07.182Z,32.55
2022-10-17T11:38:59.693Z,32.93
2022-10-17T11:41:37.881Z,32.96
2022-10-17T11:44:06.998Z,32.76
2022-10-17T11:46:36.383Z,33.36
2022-10-17T11:49:20.391Z,33.69
2022-10-17T11:52:51.321Z,34.09
2022-10-17T11:55:23.390Z,34.43
2022-10-17T11:57:58.955Z,34.32
2022-10-17T12:00:51.110Z,32.93
2022-10-17T12:03:35.737Z,33.71
2022-10-17T12:06:17.467Z,33.99
2022-10-17T12:09:00.934Z,33.75
2022-10-17T12:11:34.534Z,34.31
2022-10-17T12:14:05.872Z,34.00
2022-10-17T12:16:35.720Z,33.73
2022-10-17T12:19:02.199Z,34.05
2022-10-17T12:21:43.425Z,34.71
2022-10-17T12:24:36.524Z,34.00
2022-10-17T12:27:22.958Z,33.82
2022-10-17T12:29:50.602Z,33.95
2022-10-17T12:32:17.329Z,34.17
2022-10-17T12:34:57.980Z,34.14
2022-10-17T12:37:42.977Z,34.39
2022-10-17T12:40:37.332Z,34.36
2022-10-17T12:43:15.976Z,33.43
2022-10-17T12:45:48.648Z,32.81
2022-10-17T12:48:33.205Z,32.72
2022-10-17T12:51:17.550Z,32.72
2022-10-17T12:54:16.115Z,32.71
2022-10-17T12:56:47.959Z,32.65
2022-10-17T12:59:28.599Z,33.03
2022-10-17T13:01:59.465Z,32.82
2022-10-17T13:04:28.614Z,31.90
2022-10-17T13:06:59.382Z,31.94
2022-10-17T13:09:29.515Z,32.54
2022-10-17T13:11:58.847Z,32.95
2022-10-17T13:14:26.148Z,33.09
2022-10-17T13:16:58.542Z,33.10
2022-10-17T13:19:45.737Z,33.30
2022-10-17T13:22:21.989Z,32.13
2022-10-17T13:24:50.401Z,32.10
2022-10-17T13:27:34.223Z,32.61
2022-10-17T13:30:02.697Z,32.15
2022-10-17T13:32:38.243Z,32.34
2022-10-17T13:35:10.312Z,32.70
2022-10-17T13:37:39.228Z,32.94
2022-10-17T13:40:24.834Z,32.41
2022-10-17T13:42:56.239Z,32.65
2022-10-17T13:45:28.333Z,31.90
2022-10-17T13:47:55.347Z,31.97
2022-10-17T13:50:44.007Z,31.75
2022-10-17T13:53:29.379Z,31.95
2022-10-17T13:56:29.866Z,31.44
2022-10-17T13:58:57.519Z,31.04
2022-10-17T14:01:27.760Z,31.51
2022-10-17T14:04:07.887Z,31.28
2022-10-17T14:06:45.093Z,31.07
2022-10-17T14:09:25.395Z,31.51
2022-10-17T14:12:00.450Z,30.91
2022-10-17T14:14:28.058Z,31.32
2022-10-17T14:16:55.003Z,31.62
2022-10-17T14:19:27.106Z,31.50
2022-10-17T14:21:57.016Z,31.43
2022-10-17T14:24:23.543Z,31.46
2022-10-17T14:26:52.423Z,31.44
2022-10-17T14:29:29.778Z,31.36
2022-10-17T14:32:08.656Z,30.95
2022-10-17T14:34:39.131Z,31.24
2022-10-17T14:37:23.687Z,30.24
2022-10-17T14:39:51.883Z,30.34
2022-10-17T14:42:21.118Z,30.15
2022-10-17T14:44:53.527Z,29.83
2022-10-17T14:47:42.619Z,29.59
2022-10-17T14:50:10.255Z,28.23
2022-10-17T14:52:38.893Z,27.84
2022-10-17T14:55:27.194Z,27.49
2022-10-17T14:57:53.678Z,26.88
2022-10-17T15:00:21.731Z,26.88
2022-10-17T15:02:51.469Z,26.50
2022-10-17T15:05:20.237Z,25.84
2022-10-17T15:07:47.027Z,25.85
2022-10-17T15:10:36.322Z,25.39
2022-10-17T15:15:52.257Z,25.09
2022-10-17T15:18:19.094Z,24.71
2022-10-17T15:20:45.639Z,24.51
2022-10-17T15:23:12.266Z,24.29
2022-10-17T15:25:39.426Z,23.80
2022-10-17T15:28:05.973Z,23.65
2022-10-17T15:30:36.363Z,23.51
2022-10-17T15:33:03.029Z,23.10
2022-10-17T15:35:30.341Z,22.83
2022-10-17T15:37:56.859Z,22.58
2022-10-17T15:40:26.197Z,22.07
2022-10-17T15:42:52.751Z,21.82
2022-10-17T15:45:22.150Z,21.35
2022-10-17T15:47:59.303Z,21.12
2022-10-17T15:50:25.829Z,20.76
2022-10-17T15:52:52.396Z,20.51
2022-10-17T15:55:19.509Z,20.30
2022-10-17T15:57:47.835Z,19.94
2022-10-17T16:00:22.816Z,19.82
2022-10-17T16:02:49.887Z,19.41
2022-10-17T16:05:29.196Z,19.13
2022-10-17T16:07:57.507Z,18.86
2022-10-17T16:10:25.912Z,18.75
2022-10-17T16:12:52.747Z,18.76
2022-10-17T16:15:27.922Z,18.47
2022-10-17T16:17:56.564Z,18.37
2022-10-17T16:20:24.619Z,18.22
2022-10-17T16:22:51.393Z,17.92
2022-10-17T16:25:24.410Z,17.75
2022-10-17T16:27:53.544Z,17.56
2022-10-17T16:32:54.198Z,17.29
2022-10-17T16:35:24.286Z,17.10
2022-10-17T16:37:51.217Z,16.89
2022-10-17T16:40:18.406Z,16.76
2022-10-17T16:42:45.364Z,16.66
2022-10-17T16:45:20.666Z,16.57
2022-10-17T16:47:47.908Z,16.46
2022-10-17T16:50:14.987Z,16.19
2022-10-17T16:52:42.168Z,15.99
2022-10-17T16:55:09.903Z,15.86
2022-10-17T16:57:36.700Z,15.71
2022-10-17T17:00:05.951Z,15.75
2022-10-17T17:02:33.344Z,15.51
2022-10-17T17:05:00.195Z,15.36
2022-10-17T17:07:29.371Z,15.32
2022-10-17T17:09:56.419Z,15.23
2022-10-17T17:12:23.188Z,15.13
2022-10-17T17:14:49.675Z,14.95
2022-10-17T17:17:24.653Z,14.84
2022-10-17T17:20:02.731Z,14.71
2022-10-17T17:22:29.292Z,14.54
2022-10-17T17:24:55.788Z,14.52
2022-10-17T17:27:24.555Z,14.40
2022-10-17T17:29:51.036Z,14.39
2022-10-17T17:32:17.517Z,14.30
2022-10-17T17:34:44.058Z,14.16
2022-10-17T17:37:10.554Z,14.16
2022-10-17T17:39:37.051Z,14.08
2022-10-17T17:42:04.374Z,13.94
2022-10-17T17:44:31.832Z,13.91
2022-10-17T17:46:58.309Z,13.79
2022-10-17T17:49:25.897Z,13.71
2022-10-17T17:51:52.426Z,13.65
2022-10-17T17:54:18.982Z,13.62
2022-10-17T17:56:45.519Z,13.54
2022-10-17T17:59:13.499Z,13.41
2022-10-17T18:01:40.349Z,13.33
2022-10-17T18:04:08.854Z,13.28
2022-10-17T18:06:37.069Z,13.19
2022-10-17T18:09:04.521Z,13.13
2022-10-17T18:11:31.518Z,13.07
2022-10-17T18:14:01.987Z,12.99
2022-10-17T18:16:30.505Z,12.94
2022-10-17T18:18:59.504Z,12.87
2022-10-17T18:21:29.055Z,12.73
2022-10-17T18:23:55.578Z,12.69
2022-10-17T18:26:22.082Z,12.64
2022-10-17T18:28:49.577Z,12.49
2022-10-17T18:31:25.080Z,12.56
2022-10-17T18:33:53.043Z,12.46
2022-10-17T18:36:20.416Z,12.39
2022-10-17T18:38:47.615Z,12.38
2022-10-17T18:41:16.627Z,12.27
2022-10-17T18:43:45.011Z,12.28
2022-10-17T18:46:15.035Z,12.17
2022-10-17T18:48:44.280Z,12.16
2022-10-17T18:51:11.547Z,12.10
2022-10-17T18:53:42.910Z,12.00
2022-10-17T18:56:09.966Z,11.91
2022-10-17T18:58:37.717Z,11.90
2022-10-17T19:01:06.906Z,11.84
2022-10-17T19:03:33.792Z,11.74
2022-10-17T19:06:05.779Z,11.71
2022-10-17T19:08:32.274Z,11.74
2022-10-17T19:11:08.158Z,11.65
2022-10-17T19:13:37.702Z,11.58
2022-10-17T19:16:10.222Z,11.44
2022-10-17T19:18:36.962Z,11.44
2022-10-17T19:21:09.010Z,11.47
2022-10-17T19:23:36.850Z,11.38
2022-10-17T19:26:09.435Z,11.34
2022-10-17T19:28:38.543Z,11.26
2022-10-17T19:31:06.607Z,11.21
2022-10-17T19:33:33.992Z,11.17
2022-10-17T19:36:06.743Z,11.10
2022-10-17T19:38:34.028Z,10.96
2022-10-17T19:43:32.115Z,10.88
2022-10-17T19:46:03.191Z,10.84
2022-10-17T19:48:32.962Z,10.80
2022-10-17T19:50:59.878Z,10.81
2022-10-17T19:53:29.688Z,10.81
2022-10-17T19:55:57.763Z,10.66
2022-10-17T19:58:25.326Z,10.60
2022-10-17T20:00:58.023Z,10.54
2022-10-17T20:03:25.441Z,10.51
2022-10-17T20:05:52.073Z,10.50
2022-10-17T20:08:18.991Z,10.47
2022-10-17T20:10:46.245Z,10.44
2022-10-17T20:13:13.584Z,10.33
2022-10-17T20:15:40.947Z,10.35
2022-10-17T20:18:08.824Z,10.32
2022-10-17T20:20:36.365Z,10.30
2022-10-17T20:23:03.825Z,10.27
2022-10-17T20:25:30.516Z,10.23
2022-10-17T20:27:57.054Z,10.12
2022-10-17T20:30:23.583Z,10.08
2022-10-17T20:32:55.050Z,10.10
2022-10-17T20:35:22.323Z,10.07
2022-10-17T20:37:49.221Z,10.03
2022-10-17T20:40:34.616Z,9.98
2022-10-17T20:43:01.706Z,9.93
2022-10-17T20:45:43.614Z,9.93
2022-10-17T20:48:15.965Z,9.93
2022-10-17T20:50:44.344Z,9.96
2022-10-17T20:53:35.330Z,9.90
2022-10-17T20:56:03.880Z,9.86
2022-10-17T20:58:30.440Z,9.77
2022-10-17T21:00:57.182Z,9.77
2022-10-17T21:03:24.311Z,9.72
2022-10-17T21:05:50.915Z,9.74
2022-10-17T21:08:17.479Z,9.70
2022-10-17T21:10:43.975Z,9.69
2022-10-17T21:13:10.449Z,9.61
2022-10-17T21:15:36.931Z,9.61
2022-10-17T21:18:03.728Z,9.62
2022-10-17T21:20:30.203Z,9.56
2022-10-17T21:22:57.847Z,9.41
2022-10-17T21:25:24.378Z,9.38
2022-10-17T21:27:52.591Z,9.37
2022-10-17T21:30:20.942Z,9.36
2022-10-17T21:32:51.500Z,9.35
2022-10-17T21:35:18.424Z,9.32
2022-10-17T21:37:44.935Z,9.29
2022-10-17T21:40:12.214Z,9.24
2022-10-17T21:42:38.761Z,9.21
2022-10-17T21:45:15.214Z,9.17
2022-10-17T21:47:55.055Z,9.18
2022-10-17T21:50:29.531Z,9.15
2022-10-17T21:52:58.525Z,9.13
2022-10-17T21:55:25.035Z,9.11
2022-10-17T21:57:51.815Z,9.02
2022-10-17T22:00:18.497Z,8.93
2022-10-17T22:02:44.975Z,8.78
2022-10-17T22:05:11.479Z,8.66
2022-10-17T22:07:37.961Z,8.72
2022-10-17T22:10:04.884Z,8.68
2022-10-17T22:12:31.713Z,8.66
2022-10-17T22:14:58.402Z,8.63
2022-10-17T22:17:24.975Z,8.61
2022-10-17T22:19:51.448Z,8.56
2022-10-17T22:22:17.913Z,8.60
2022-10-17T22:24:44.396Z,8.52
2022-10-17T22:27:11.121Z,8.50
2022-10-17T22:29:39.551Z,8.41
2022-10-17T22:32:06.055Z,8.45
2022-10-17T22:34:32.560Z,8.42
2022-10-17T22:36:59.083Z,8.38
2022-10-17T22:39:25.585Z,8.38
2022-10-17T22:41:52.068Z,8.35
2022-10-17T22:44:18.559Z,8.28
2022-10-17T22:46:45.041Z,8.30
2022-10-17T22:49:11.633Z,8.16
2022-10-17T22:51:38.177Z,8.22
2022-10-17T22:54:05.058Z,8.24
2022-10-17T22:56:31.662Z,8.14
2022-10-17T22:58:58.422Z,8.23
2022-10-17T23:01:26.082Z,8.17
2022-10-17T23:03:53.081Z,8.19
2022-10-17T23:06:20.287Z,8.16
2022-10-17T23:08:46.864Z,8.23
2022-10-17T23:11:13.486Z,8.22
2022-10-17T23:13:41.025Z,8.22
2022-10-17T23:16:08.684Z,8.20
2022-10-17T23:18:35.471Z,8.23
2022-10-17T23:21:02.069Z,8.26
2022-10-17T23:23:28.580Z,8.27
2022-10-17T23:25:55.163Z,8.18
2022-10-17T23:28:21.680Z,8.07
2022-10-17T23:30:48.244Z,8.01
2022-10-17T23:33:14.823Z,7.91
2022-10-17T23:35:41.750Z,7.80
2022-10-17T23:38:08.668Z,7.86
2022-10-17T23:40:35.410Z,7.87
2022-10-17T23:43:02.934Z,7.82
2022-10-17T23:45:33.420Z,7.79
2022-10-17T23:48:02.813Z,7.81
2022-10-17T23:50:29.300Z,7.76
2022-10-17T23:52:55.803Z,7.75
2022-10-17T23:55:22.310Z,7.72
2022-10-17T23:57:48.766Z,7.68
